Iliamna Airport Iliamna US
ICAO: PAIL
IATA:
Category: Medium
Scheduled Services:

Elevation: 192 ft
TransAlt. 18000 ft.

Airport Communications:
ASOS:134.95
ATIS:134.95
ANCHORAGE CNTR:118.8
CTAF:123.6
RDO:123.6
KENAI RDO:121.2
KENAI RDO:122.2

PAIL Zoom In..

If you have problems with the map follow the link
https://www.worldairports.se/pages/airport.php?
ICAO=PAIL

Runways:

(A) RW 07 length 5086 ft width 100 ft
---- / hdg 76

(B) RW 17 length 4800 ft width 100 ft
---- / hdg 172

(C) RW 25 length 5086 ft width 100 ft
---- / hdg 256

(D) RW 35 length 4800 ft width 100 ft
---- / hdg 352

Location; PAIL
Day. 18 / Time. 01.56 Zulu
* Altimeter: 29.86
* Temperature: 00° c. 32°f.
* Wind from: 210° Speed 14 kn with Gusts up to 23 kn.
Dewpoint: 00° c.
Visibility: 3 Statute Miles.
Clouds: Few 1200 ft.
Clouds: Broken 2500 ft.
Clouds: Overcast 2900 ft.
Conditions: Light Snow.

PAIL 180156Z 21014G23KT 3SM -SN FEW012 BKN025 OVC029 00/00 A2986 RMK AO2 SNB54 P0000 T00000000 $


Wind From 210°
Speed 14 kn.

 
 
jpsmedia.com for Web Design worldairports.se 2019   terms of use